sensor_id;sensor_type;location;lat;lon;timestamp;pressure;altitude;pressure_sealevel;temperature;humidity
59009;BME280;44794;42.652;23.318;2024-01-16T00:02:07;93079.81;;;6.21;71.46
59009;BME280;44794;42.652;23.318;2024-01-16T00:04:35;93082.97;;;6.24;73.06
59009;BME280;44794;42.652;23.318;2024-01-16T00:07:01;93096.47;;;6.17;72.20
59009;BME280;44794;42.652;23.318;2024-01-16T00:09:26;93086.97;;;6.17;72.71
59009;BME280;44794;42.652;23.318;2024-01-16T00:11:51;93105.50;;;5.91;72.76
59009;BME280;44794;42.652;23.318;2024-01-16T00:14:17;93077.81;;;5.93;74.65
59009;BME280;44794;42.652;23.318;2024-01-16T00:16:47;93068.38;;;5.40;76.06
59009;BME280;44794;42.652;23.318;2024-01-16T00:19:15;93076.03;;;5.62;76.78
59009;BME280;44794;42.652;23.318;2024-01-16T00:21:41;93087.69;;;5.88;76.72
59009;BME280;44794;42.652;23.318;2024-01-16T00:24:07;93086.91;;;6.08;75.57
59009;BME280;44794;42.652;23.318;2024-01-16T00:26:32;93087.91;;;5.96;75.33
59009;BME280;44794;42.652;23.318;2024-01-16T00:28:58;93086.09;;;6.28;73.75
59009;BME280;44794;42.652;23.318;2024-01-16T00:31:23;93091.47;;;6.36;72.52
59009;BME280;44794;42.652;23.318;2024-01-16T00:33:48;93117.25;;;6.36;72.40
59009;BME280;44794;42.652;23.318;2024-01-16T00:36:14;93111.59;;;6.42;72.46
59009;BME280;44794;42.652;23.318;2024-01-16T00:38:40;93111.09;;;6.48;70.42
59009;BME280;44794;42.652;23.318;2024-01-16T00:41:05;93102.09;;;6.63;69.30
59009;BME280;44794;42.652;23.318;2024-01-16T00:43:31;93109.97;;;6.41;69.08
59009;BME280;44794;42.652;23.318;2024-01-16T00:45:56;93133.19;;;6.41;71.40
59009;BME280;44794;42.652;23.318;2024-01-16T00:48:22;93124.16;;;6.35;71.72
59009;BME280;44794;42.652;23.318;2024-01-16T00:50:47;93118.19;;;6.35;71.18
59009;BME280;44794;42.652;23.318;2024-01-16T00:53:15;93110.59;;;6.02;71.96
59009;BME280;44794;42.652;23.318;2024-01-16T00:55:41;93113.22;;;5.80;73.11
59009;BME280;44794;42.652;23.318;2024-01-16T00:58:06;93125.63;;;5.86;74.10
59009;BME280;44794;42.652;23.318;2024-01-16T01:00:31;93111.56;;;5.90;75.21
59009;BME280;44794;42.652;23.318;2024-01-16T01:02:58;93141.31;;;6.25;73.54
59009;BME280;44794;42.652;23.318;2024-01-16T01:05:24;93169.56;;;6.27;73.29
59009;BME280;44794;42.652;23.318;2024-01-16T01:07:53;93094.47;;;5.47;72.75
59009;BME280;44794;42.652;23.318;2024-01-16T01:10:18;93133.41;;;5.10;78.36
59009;BME280;44794;42.652;23.318;2024-01-16T01:12:44;93125.69;;;5.10;81.66
59009;BME280;44794;42.652;23.318;2024-01-16T01:15:09;93108.94;;;5.59;80.48
59009;BME280;44794;42.652;23.318;2024-01-16T01:17:35;93114.88;;;5.59;76.15
59009;BME280;44794;42.652;23.318;2024-01-16T01:20:01;93136.31;;;5.82;77.00
59009;BME280;44794;42.652;23.318;2024-01-16T01:22:26;93152.94;;;6.20;75.40
59009;BME280;44794;42.652;23.318;2024-01-16T01:24:51;93143.38;;;6.31;70.34
59009;BME280;44794;42.652;23.318;2024-01-16T01:27:17;93145.34;;;6.39;71.73
59009;BME280;44794;42.652;23.318;2024-01-16T01:29:42;93136.00;;;6.78;69.93
59009;BME280;44794;42.652;23.318;2024-01-16T01:32:07;93138.06;;;6.84;69.05
59009;BME280;44794;42.652;23.318;2024-01-16T01:34:32;93132.91;;;7.05;67.94
59009;BME280;44794;42.652;23.318;2024-01-16T01:36:58;93128.94;;;7.01;67.98
59009;BME280;44794;42.652;23.318;2024-01-16T01:39:23;93151.59;;;6.97;68.83
59009;BME280;44794;42.652;23.318;2024-01-16T01:41:48;93127.22;;;7.11;69.29
59009;BME280;44794;42.652;23.318;2024-01-16T01:44:14;93118.25;;;6.65;71.71
59009;BME280;44794;42.652;23.318;2024-01-16T01:46:41;93102.56;;;6.68;73.99
59009;BME280;44794;42.652;23.318;2024-01-16T01:49:07;93118.31;;;6.74;74.98
59009;BME280;44794;42.652;23.318;2024-01-16T01:51:32;93114.81;;;6.55;76.24
59009;BME280;44794;42.652;23.318;2024-01-16T01:53:58;93121.59;;;6.76;78.11
59009;BME280;44794;42.652;23.318;2024-01-16T01:56:26;93113.41;;;6.91;77.48
59009;BME280;44794;42.652;23.318;2024-01-16T01:58:56;93106.25;;;7.04;76.13
59009;BME280;44794;42.652;23.318;2024-01-16T02:01:23;93120.13;;;7.03;75.44
59009;BME280;44794;42.652;23.318;2024-01-16T02:03:50;93111.78;;;7.20;74.95
59009;BME280;44794;42.652;23.318;2024-01-16T02:06:16;93107.72;;;6.97;76.20
59009;BME280;44794;42.652;23.318;2024-01-16T02:08:41;93112.50;;;7.02;77.44
59009;BME280;44794;42.652;23.318;2024-01-16T02:11:07;93121.41;;;7.18;76.51
59009;BME280;44794;42.652;23.318;2024-01-16T02:13:32;93136.31;;;7.35;75.31
59009;BME280;44794;42.652;23.318;2024-01-16T02:15:58;93129.78;;;7.31;75.69
59009;BME280;44794;42.652;23.318;2024-01-16T02:19:02;93107.81;;;6.86;80.79
59009;BME280;44794;42.652;23.318;2024-01-16T02:21:28;93113.97;;;6.95;81.86
59009;BME280;44794;42.652;23.318;2024-01-16T02:23:53;93111.41;;;6.34;87.38
59009;BME280;44794;42.652;23.318;2024-01-16T02:26:18;93111.78;;;6.29;90.78
59009;BME280;44794;42.652;23.318;2024-01-16T02:28:44;93122.44;;;6.56;90.78
59009;BME280;44794;42.652;23.318;2024-01-16T02:33:04;93119.91;;;6.86;90.18
59009;BME280;44794;42.652;23.318;2024-01-16T02:35:29;93137.78;;;7.08;87.96
59009;BME280;44794;42.652;23.318;2024-01-16T02:37:55;93131.16;;;7.35;86.22
59009;BME280;44794;42.652;23.318;2024-01-16T02:40:20;93143.47;;;7.52;83.64
59009;BME280;44794;42.652;23.318;2024-01-16T02:42:45;93147.84;;;7.31;84.69
59009;BME280;44794;42.652;23.318;2024-01-16T02:45:10;93141.88;;;7.40;85.44
59009;BME280;44794;42.652;23.318;2024-01-16T02:47:36;93154.91;;;7.59;83.00
59009;BME280;44794;42.652;23.318;2024-01-16T02:50:01;93151.28;;;7.41;83.00
59009;BME280;44794;42.652;23.318;2024-01-16T02:52:27;93161.88;;;7.38;84.57
59009;BME280;44794;42.652;23.318;2024-01-16T02:54:53;93179.78;;;7.30;83.79
59009;BME280;44794;42.652;23.318;2024-01-16T02:57:18;93194.75;;;7.36;83.56
59009;BME280;44794;42.652;23.318;2024-01-16T02:59:44;93225.84;;;6.73;85.75
59009;BME280;44794;42.652;23.318;2024-01-16T03:02:09;93236.13;;;6.53;90.86
59009;BME280;44794;42.652;23.318;2024-01-16T03:04:35;93226.44;;;6.46;89.17
59009;BME280;44794;42.652;23.318;2024-01-16T03:07:00;93235.44;;;6.82;86.90
59009;BME280;44794;42.652;23.318;2024-01-16T03:09:25;93242.66;;;7.09;86.07
59009;BME280;44794;42.652;23.318;2024-01-16T03:11:51;93256.53;;;7.48;82.37
59009;BME280;44794;42.652;23.318;2024-01-16T03:14:16;93271.78;;;7.81;78.69
59009;BME280;44794;42.652;23.318;2024-01-16T03:16:41;93282.88;;;7.93;76.78
59009;BME280;44794;42.652;23.318;2024-01-16T03:19:07;93281.75;;;7.86;76.97
59009;BME280;44794;42.652;23.318;2024-01-16T03:21:32;93316.22;;;7.55;78.97
59009;BME280;44794;42.652;23.318;2024-01-16T03:23:57;93299.91;;;7.34;83.28
59009;BME280;44794;42.652;23.318;2024-01-16T03:26:22;93296.56;;;7.02;88.86
59009;BME280;44794;42.652;23.318;2024-01-16T03:28:48;93294.41;;;7.07;94.27
59009;BME280;44794;42.652;23.318;2024-01-16T03:31:13;93294.56;;;6.64;100.00
59009;BME280;44794;42.652;23.318;2024-01-16T03:33:42;93291.41;;;6.60;100.00
59009;BME280;44794;42.652;23.318;2024-01-16T03:36:08;93280.00;;;6.31;100.00
59009;BME280;44794;42.652;23.318;2024-01-16T03:38:38;93293.41;;;6.14;100.00
59009;BME280;44794;42.652;23.318;2024-01-16T03:41:04;93302.59;;;5.51;100.00
59009;BME280;44794;42.652;23.318;2024-01-16T03:43:31;93310.44;;;5.50;100.00
59009;BME280;44794;42.652;23.318;2024-01-16T03:47:00;93316.38;;;4.71;100.00
59009;BME280;44794;42.652;23.318;2024-01-16T03:49:25;93335.75;;;4.41;100.00
59009;BME280;44794;42.652;23.318;2024-01-16T03:51:51;93321.00;;;4.43;100.00
59009;BME280;44794;42.652;23.318;2024-01-16T03:54:16;93327.19;;;4.40;100.00
59009;BME280;44794;42.652;23.318;2024-01-16T03:56:41;93335.75;;;4.64;100.00
59009;BME280;44794;42.652;23.318;2024-01-16T03:59:07;93338.66;;;4.59;100.00
59009;BME280;44794;42.652;23.318;2024-01-16T04:01:33;93361.72;;;4.95;100.00
59009;BME280;44794;42.652;23.318;2024-01-16T04:03:58;93364.78;;;5.00;100.00
59009;BME280;44794;42.652;23.318;2024-01-16T04:06:23;93391.63;;;5.09;100.00
59009;BME280;44794;42.652;23.318;2024-01-16T04:08:49;93390.59;;;4.52;100.00
59009;BME280;44794;42.652;23.318;2024-01-16T04:11:14;93392.72;;;4.22;100.00
59009;BME280;44794;42.652;23.318;2024-01-16T04:13:40;93401.66;;;4.04;100.00
59009;BME280;44794;42.652;23.318;2024-01-16T04:16:05;93425.38;;;4.45;100.00
59009;BME280;44794;42.652;23.318;2024-01-16T04:18:35;93421.66;;;4.49;100.00
59009;BME280;44794;42.652;23.318;2024-01-16T04:21:00;93423.81;;;4.43;100.00
59009;BME280;44794;42.652;23.318;2024-01-16T04:25:53;93431.75;;;4.27;100.00
59009;BME280;44794;42.652;23.318;2024-01-16T04:28:19;93417.06;;;4.04;100.00
59009;BME280;44794;42.652;23.318;2024-01-16T04:30:44;93423.34;;;4.00;100.00
59009;BME280;44794;42.652;23.318;2024-01-16T04:33:11;93428.19;;;4.05;100.00
59009;BME280;44794;42.652;23.318;2024-01-16T04:35:36;93441.84;;;4.05;100.00
59009;BME280;44794;42.652;23.318;2024-01-16T04:38:01;93424.16;;;4.01;100.00
59009;BME280;44794;42.652;23.318;2024-01-16T04:40:28;93412.47;;;4.09;100.00
59009;BME280;44794;42.652;23.318;2024-01-16T04:42:53;93423.84;;;4.05;100.00
59009;BME280;44794;42.652;23.318;2024-01-16T04:45:18;93438.97;;;3.97;100.00
59009;BME280;44794;42.652;23.318;2024-01-16T04:47:44;93457.88;;;3.96;100.00
59009;BME280;44794;42.652;23.318;2024-01-16T04:50:09;93459.09;;;4.16;100.00
59009;BME280;44794;42.652;23.318;2024-01-16T04:52:34;93471.44;;;4.23;100.00
59009;BME280;44794;42.652;23.318;2024-01-16T04:55:01;93483.75;;;4.18;100.00
59009;BME280;44794;42.652;23.318;2024-01-16T04:57:26;93486.13;;;4.09;100.00
59009;BME280;44794;42.652;23.318;2024-01-16T04:59:52;93489.00;;;3.92;100.00
59009;BME280;44794;42.652;23.318;2024-01-16T05:02:17;93497.72;;;3.89;100.00
59009;BME280;44794;42.652;23.318;2024-01-16T05:04:43;93513.09;;;3.77;100.00
59009;BME280;44794;42.652;23.318;2024-01-16T05:07:08;93511.34;;;3.77;100.00
59009;BME280;44794;42.652;23.318;2024-01-16T05:09:34;93525.44;;;3.84;100.00
59009;BME280;44794;42.652;23.318;2024-01-16T05:11:59;93528.28;;;3.80;100.00
59009;BME280;44794;42.652;23.318;2024-01-16T05:14:25;93539.59;;;3.77;100.00
59009;BME280;44794;42.652;23.318;2024-01-16T05:16:50;93547.84;;;3.82;100.00
59009;BME280;44794;42.652;23.318;2024-01-16T05:19:16;93557.88;;;3.85;100.00
59009;BME280;44794;42.652;23.318;2024-01-16T05:21:41;93564.09;;;3.95;100.00
59009;BME280;44794;42.652;23.318;2024-01-16T05:24:07;93569.22;;;3.95;100.00
59009;BME280;44794;42.652;23.318;2024-01-16T05:26:33;93584.53;;;3.70;100.00
59009;BME280;44794;42.652;23.318;2024-01-16T05:28:59;93597.13;;;3.87;100.00
59009;BME280;44794;42.652;23.318;2024-01-16T05:31:24;93608.63;;;3.82;100.00
59009;BME280;44794;42.652;23.318;2024-01-16T05:33:49;93603.72;;;3.91;100.00
59009;BME280;44794;42.652;23.318;2024-01-16T05:36:15;93609.25;;;3.85;100.00
59009;BME280;44794;42.652;23.318;2024-01-16T05:38:40;93623.84;;;4.24;100.00
59009;BME280;44794;42.652;23.318;2024-01-16T05:41:05;93631.13;;;4.17;100.00
59009;BME280;44794;42.652;23.318;2024-01-16T05:43:31;93629.22;;;3.94;100.00
59009;BME280;44794;42.652;23.318;2024-01-16T05:45:56;93647.13;;;4.08;100.00
59009;BME280;44794;42.652;23.318;2024-01-16T05:48:21;93655.81;;;4.32;100.00
59009;BME280;44794;42.652;23.318;2024-01-16T05:50:47;93671.44;;;4.29;100.00
59009;BME280;44794;42.652;23.318;2024-01-16T05:53:12;93675.03;;;4.39;100.00
59009;BME280;44794;42.652;23.318;2024-01-16T05:56:06;93676.28;;;4.34;100.00
59009;BME280;44794;42.652;23.318;2024-01-16T05:59:52;93694.66;;;4.01;100.00
59009;BME280;44794;42.652;23.318;2024-01-16T06:02:17;93699.38;;;4.21;100.00
59009;BME280;44794;42.652;23.318;2024-01-16T06:04:43;93704.63;;;4.32;100.00
59009;BME280;44794;42.652;23.318;2024-01-16T06:07:08;93710.50;;;4.34;100.00
59009;BME280;44794;42.652;23.318;2024-01-16T06:09:33;93723.97;;;4.11;100.00
59009;BME280;44794;42.652;23.318;2024-01-16T06:14:13;93723.16;;;4.11;100.00
59009;BME280;44794;42.652;23.318;2024-01-16T06:16:38;93727.88;;;3.90;100.00
59009;BME280;44794;42.652;23.318;2024-01-16T06:19:04;93745.09;;;4.16;100.00
59009;BME280;44794;42.652;23.318;2024-01-16T06:21:30;93752.34;;;4.36;100.00
59009;BME280;44794;42.652;23.318;2024-01-16T06:23:55;93762.47;;;4.25;100.00
59009;BME280;44794;42.652;23.318;2024-01-16T06:26:20;93761.94;;;4.46;100.00
59009;BME280;44794;42.652;23.318;2024-01-16T06:28:46;93760.88;;;4.37;100.00
59009;BME280;44794;42.652;23.318;2024-01-16T06:31:11;93760.34;;;4.70;100.00
59009;BME280;44794;42.652;23.318;2024-01-16T06:33:37;93767.50;;;4.53;100.00
59009;BME280;44794;42.652;23.318;2024-01-16T06:36:02;93785.53;;;4.39;100.00
59009;BME280;44794;42.652;23.318;2024-01-16T06:38:29;93784.63;;;4.14;100.00
59009;BME280;44794;42.652;23.318;2024-01-16T06:40:54;93790.72;;;3.99;100.00
59009;BME280;44794;42.652;23.318;2024-01-16T06:43:20;93799.44;;;4.23;100.00
59009;BME280;44794;42.652;23.318;2024-01-16T06:45:45;93797.56;;;3.98;100.00
59009;BME280;44794;42.652;23.318;2024-01-16T06:48:10;93808.41;;;4.03;100.00
59009;BME280;44794;42.652;23.318;2024-01-16T06:50:36;93823.38;;;3.97;100.00
59009;BME280;44794;42.652;23.318;2024-01-16T06:53:01;93834.66;;;3.80;100.00
59009;BME280;44794;42.652;23.318;2024-01-16T06:55:26;93845.72;;;3.39;100.00
59009;BME280;44794;42.652;23.318;2024-01-16T06:57:51;93858.50;;;3.55;100.00
59009;BME280;44794;42.652;23.318;2024-01-16T07:00:17;93878.06;;;3.42;98.81
59009;BME280;44794;42.652;23.318;2024-01-16T07:02:42;93874.31;;;3.47;98.91
59009;BME280;44794;42.652;23.318;2024-01-16T07:05:08;93877.53;;;3.51;97.16
59009;BME280;44794;42.652;23.318;2024-01-16T07:08:27;93875.53;;;3.69;96.90
59009;BME280;44794;42.652;23.318;2024-01-16T07:10:52;93871.34;;;3.55;96.31
59009;BME280;44794;42.652;23.318;2024-01-16T07:13:18;93893.31;;;3.59;96.46
59009;BME280;44794;42.652;23.318;2024-01-16T07:15:43;93897.19;;;3.79;97.17
59009;BME280;44794;42.652;23.318;2024-01-16T07:18:09;93901.06;;;3.86;97.04
59009;BME280;44794;42.652;23.318;2024-01-16T07:20:34;93923.06;;;4.18;95.82
59009;BME280;44794;42.652;23.318;2024-01-16T07:22:59;93931.41;;;4.08;94.15
59009;BME280;44794;42.652;23.318;2024-01-16T07:25:25;93944.81;;;4.41;93.18
59009;BME280;44794;42.652;23.318;2024-01-16T07:29:59;93947.47;;;4.11;93.15
59009;BME280;44794;42.652;23.318;2024-01-16T07:32:24;93961.16;;;4.12;92.34
59009;BME280;44794;42.652;23.318;2024-01-16T07:34:49;93961.53;;;4.06;92.96
59009;BME280;44794;42.652;23.318;2024-01-16T07:37:16;93963.06;;;3.94;93.67
59009;BME280;44794;42.652;23.318;2024-01-16T07:39:42;93975.03;;;3.80;94.16
59009;BME280;44794;42.652;23.318;2024-01-16T07:42:08;93971.03;;;3.90;93.68
59009;BME280;44794;42.652;23.318;2024-01-16T07:44:33;93982.69;;;3.81;92.10
59009;BME280;44794;42.652;23.318;2024-01-16T07:46:58;93971.03;;;3.90;91.45
59009;BME280;44794;42.652;23.318;2024-01-16T07:49:23;93983.41;;;3.97;91.29
59009;BME280;44794;42.652;23.318;2024-01-16T07:52:57;93986.00;;;4.11;90.85
59009;BME280;44794;42.652;23.318;2024-01-16T07:55:22;93998.31;;;4.20;89.67
59009;BME280;44794;42.652;23.318;2024-01-16T07:57:47;94011.00;;;4.37;89.15
59009;BME280;44794;42.652;23.318;2024-01-16T08:00:12;94010.63;;;4.43;88.46
59009;BME280;44794;42.652;23.318;2024-01-16T08:02:38;94021.78;;;4.98;86.22
59009;BME280;44794;42.652;23.318;2024-01-16T08:05:03;94033.84;;;4.97;83.15
59009;BME280;44794;42.652;23.318;2024-01-16T08:07:29;94029.53;;;4.56;83.05
59009;BME280;44794;42.652;23.318;2024-01-16T08:10:14;94039.22;;;4.09;85.44
59009;BME280;44794;42.652;23.318;2024-01-16T08:12:39;94027.16;;;3.96;88.22
59009;BME280;44794;42.652;23.318;2024-01-16T08:15:08;94041.88;;;4.08;88.26
59009;BME280;44794;42.652;23.318;2024-01-16T08:17:33;94053.78;;;4.52;86.83
59009;BME280;44794;42.652;23.318;2024-01-16T08:19:59;94049.34;;;4.40;85.46
59009;BME280;44794;42.652;23.318;2024-01-16T08:22:24;94067.94;;;4.45;84.97
59009;BME280;44794;42.652;23.318;2024-01-16T08:24:49;94075.16;;;4.52;84.37
59009;BME280;44794;42.652;23.318;2024-01-16T08:27:15;94075.50;;;3.89;85.02
59009;BME280;44794;42.652;23.318;2024-01-16T08:29:42;94067.22;;;4.14;86.89
59009;BME280;44794;42.652;23.318;2024-01-16T08:32:07;94081.69;;;4.15;85.56
59009;BME280;44794;42.652;23.318;2024-01-16T08:34:32;94089.00;;;4.36;84.81
59009;BME280;44794;42.652;23.318;2024-01-16T08:36:57;94096.72;;;4.36;84.06
59009;BME280;44794;42.652;23.318;2024-01-16T08:39:23;94110.69;;;4.46;83.72
59009;BME280;44794;42.652;23.318;2024-01-16T08:41:49;94104.66;;;4.18;84.02
59009;BME280;44794;42.652;23.318;2024-01-16T08:44:14;94106.28;;;3.75;87.68
59009;BME280;44794;42.652;23.318;2024-01-16T08:46:40;94109.00;;;3.72;90.31
59009;BME280;44794;42.652;23.318;2024-01-16T08:49:05;94104.25;;;3.80;89.65
59009;BME280;44794;42.652;23.318;2024-01-16T08:51:30;94111.63;;;3.86;88.74
59009;BME280;44794;42.652;23.318;2024-01-16T08:53:55;94111.25;;;3.63;89.73
59009;BME280;44794;42.652;23.318;2024-01-16T08:56:21;94126.38;;;3.83;89.51
59009;BME280;44794;42.652;23.318;2024-01-16T08:59:48;94124.63;;;3.83;88.67
59009;BME280;44794;42.652;23.318;2024-01-16T09:02:13;94128.34;;;4.23;87.07
59009;BME280;44794;42.652;23.318;2024-01-16T09:04:38;94134.94;;;3.97;84.74
59009;BME280;44794;42.652;23.318;2024-01-16T09:07:04;94134.56;;;3.89;85.02
59009;BME280;44794;42.652;23.318;2024-01-16T09:09:29;94134.03;;;3.98;83.59
59009;BME280;44794;42.652;23.318;2024-01-16T09:11:55;94140.22;;;4.39;81.56
59009;BME280;44794;42.652;23.318;2024-01-16T09:14:20;94150.31;;;4.28;80.26
59009;BME280;44794;42.652;23.318;2024-01-16T09:16:45;94146.59;;;4.18;80.13
59009;BME280;44794;42.652;23.318;2024-01-16T09:19:11;94143.75;;;3.93;82.00
59009;BME280;44794;42.652;23.318;2024-01-16T09:21:36;94147.97;;;4.53;82.08
59009;BME280;44794;42.652;23.318;2024-01-16T09:24:02;94156.25;;;4.58;77.71
59009;BME280;44794;42.652;23.318;2024-01-16T09:26:27;94163.00;;;4.74;77.43
59009;BME280;44794;42.652;23.318;2024-01-16T09:28:53;94170.41;;;4.65;75.85
59009;BME280;44794;42.652;23.318;2024-01-16T09:31:18;94169.50;;;4.66;74.90
59009;BME280;44794;42.652;23.318;2024-01-16T09:33:43;94169.34;;;4.40;74.28
59009;BME280;44794;42.652;23.318;2024-01-16T09:36:09;94168.34;;;4.13;77.19
59009;BME280;44794;42.652;23.318;2024-01-16T09:38:34;94166.72;;;4.55;75.90
59009;BME280;44794;42.652;23.318;2024-01-16T09:40:59;94178.72;;;4.98;73.03
59009;BME280;44794;42.652;23.318;2024-01-16T09:43:28;94177.59;;;4.88;71.13
59009;BME280;44794;42.652;23.318;2024-01-16T09:45:54;94170.75;;;4.45;71.67
59009;BME280;44794;42.652;23.318;2024-01-16T09:48:20;94177.34;;;4.49;72.93
59009;BME280;44794;42.652;23.318;2024-01-16T09:50:45;94188.56;;;4.62;72.85
59009;BME280;44794;42.652;23.318;2024-01-16T09:53:11;94190.72;;;4.69;70.98
59009;BME280;44794;42.652;23.318;2024-01-16T09:55:36;94203.53;;;4.99;69.05
59009;BME280;44794;42.652;23.318;2024-01-16T09:58:01;94192.09;;;4.75;68.94
59009;BME280;44794;42.652;23.318;2024-01-16T10:00:28;94187.69;;;4.34;71.33
59009;BME280;44794;42.652;23.318;2024-01-16T10:02:54;94173.81;;;4.65;70.64
59009;BME280;44794;42.652;23.318;2024-01-16T10:05:23;94166.16;;;4.21;72.95
59009;BME280;44794;42.652;23.318;2024-01-16T10:07:49;94165.97;;;4.24;73.69
59009;BME280;44794;42.652;23.318;2024-01-16T10:10:15;94173.44;;;4.28;72.59
59009;BME280;44794;42.652;23.318;2024-01-16T10:12:40;94178.66;;;4.56;72.68
59009;BME280;44794;42.652;23.318;2024-01-16T10:15:06;94186.41;;;4.84;70.61
59009;BME280;44794;42.652;23.318;2024-01-16T10:17:37;94184.72;;;5.12;68.17
59009;BME280;44794;42.652;23.318;2024-01-16T10:20:03;94197.22;;;5.32;66.48
59009;BME280;44794;42.652;23.318;2024-01-16T10:22:29;94199.16;;;5.28;64.69
59009;BME280;44794;42.652;23.318;2024-01-16T10:25:05;94205.97;;;5.16;63.84
59009;BME280;44794;42.652;23.318;2024-01-16T10:27:32;94199.31;;;5.39;64.03
59009;BME280;44794;42.652;23.318;2024-01-16T10:29:58;94201.72;;;5.84;63.54
59009;BME280;44794;42.652;23.318;2024-01-16T10:32:27;94198.91;;;5.73;62.34
59009;BME280;44794;42.652;23.318;2024-01-16T10:35:01;94205.31;;;5.40;62.23
59009;BME280;44794;42.652;23.318;2024-01-16T10:37:26;94200.22;;;5.80;60.94
59009;BME280;44794;42.652;23.318;2024-01-16T10:39:51;94196.91;;;5.92;60.08
59009;BME280;44794;42.652;23.318;2024-01-16T10:42:18;94206.75;;;5.72;59.00
59009;BME280;44794;42.652;23.318;2024-01-16T10:44:54;94203.63;;;5.67;60.52
59009;BME280;44794;42.652;23.318;2024-01-16T10:47:21;94206.13;;;5.54;62.69
59009;BME280;44794;42.652;23.318;2024-01-16T10:49:47;94210.53;;;5.66;60.86
59009;BME280;44794;42.652;23.318;2024-01-16T10:52:12;94213.94;;;5.67;59.67
59009;BME280;44794;42.652;23.318;2024-01-16T10:54:39;94206.75;;;5.72;59.78
59009;BME280;44794;42.652;23.318;2024-01-16T10:57:06;94211.63;;;5.62;58.05
59009;BME280;44794;42.652;23.318;2024-01-16T10:59:31;94210.16;;;5.58;56.64
59009;BME280;44794;42.652;23.318;2024-01-16T11:01:59;94214.78;;;5.81;56.03
59009;BME280;44794;42.652;23.318;2024-01-16T11:04:27;94223.47;;;6.06;55.78
59009;BME280;44794;42.652;23.318;2024-01-16T11:06:52;94217.34;;;6.21;55.99
59009;BME280;44794;42.652;23.318;2024-01-16T11:09:18;94229.25;;;6.63;55.97
59009;BME280;44794;42.652;23.318;2024-01-16T11:11:43;94230.75;;;6.91;54.10
59009;BME280;44794;42.652;23.318;2024-01-16T11:14:10;94241.22;;;6.64;53.65
59009;BME280;44794;42.652;23.318;2024-01-16T11:16:36;94241.56;;;6.19;55.43
59009;BME280;44794;42.652;23.318;2024-01-16T11:19:01;94239.88;;;6.32;55.06
59009;BME280;44794;42.652;23.318;2024-01-16T11:21:29;94227.09;;;6.30;55.05
59009;BME280;44794;42.652;23.318;2024-01-16T11:23:54;94209.41;;;5.98;57.10
59009;BME280;44794;42.652;23.318;2024-01-16T11:26:26;94204.38;;;5.55;59.99
59009;BME280;44794;42.652;23.318;2024-01-16T11:28:57;94209.16;;;5.89;60.67
59009;BME280;44794;42.652;23.318;2024-01-16T11:31:27;94204.81;;;5.89;60.25
59009;BME280;44794;42.652;23.318;2024-01-16T11:33:52;94214.94;;;6.18;59.94
59009;BME280;44794;42.652;23.318;2024-01-16T11:39:02;94216.66;;;6.05;59.31
59009;BME280;44794;42.652;23.318;2024-01-16T11:42:13;94204.06;;;5.73;61.59
59009;BME280;44794;42.652;23.318;2024-01-16T11:44:35;94211.50;;;6.05;60.74
59009;BME280;44794;42.652;23.318;2024-01-16T11:47:01;94212.34;;;6.06;60.61
59009;BME280;44794;42.652;23.318;2024-01-16T11:49:27;94217.63;;;6.17;60.86
59009;BME280;44794;42.652;23.318;2024-01-16T11:51:54;94225.38;;;6.17;59.44
59009;BME280;44794;42.652;23.318;2024-01-16T11:54:20;94239.19;;;6.16;58.77
59009;BME280;44794;42.652;23.318;2024-01-16T12:01:49;94222.84;;;5.75;61.60
59009;BME280;44794;42.652;23.318;2024-01-16T12:04:15;94214.59;;;5.42;63.00
59009;BME280;44794;42.652;23.318;2024-01-16T12:06:43;94223.97;;;5.29;64.90
59009;BME280;44794;42.652;23.318;2024-01-16T12:09:12;94240.13;;;5.18;64.69
59009;BME280;44794;42.652;23.318;2024-01-16T12:11:38;94232.78;;;5.25;64.42
59009;BME280;44794;42.652;23.318;2024-01-16T12:14:03;94243.09;;;5.67;64.11
59009;BME280;44794;42.652;23.318;2024-01-16T12:16:31;94250.41;;;5.18;64.42
59009;BME280;44794;42.652;23.318;2024-01-16T12:19:09;94249.13;;;5.11;63.45
59009;BME280;44794;42.652;23.318;2024-01-16T12:21:39;94249.25;;;5.37;63.48
59009;BME280;44794;42.652;23.318;2024-01-16T12:24:04;94236.25;;;4.97;64.76
59009;BME280;44794;42.652;23.318;2024-01-16T12:26:30;94230.13;;;4.70;66.50
59009;BME280;44794;42.652;23.318;2024-01-16T12:28:56;94247.38;;;4.97;65.24
59009;BME280;44794;42.652;23.318;2024-01-16T12:31:21;94244.47;;;5.31;64.53
59009;BME280;44794;42.652;23.318;2024-01-16T12:33:47;94253.38;;;5.67;62.42
59009;BME280;44794;42.652;23.318;2024-01-16T12:36:13;94251.47;;;5.71;62.56
59009;BME280;44794;42.652;23.318;2024-01-16T12:38:40;94249.34;;;5.63;63.06
59009;BME280;44794;42.652;23.318;2024-01-16T12:41:07;94261.34;;;5.78;61.75
59009;BME280;44794;42.652;23.318;2024-01-16T12:43:33;94263.69;;;5.67;61.30
59009;BME280;44794;42.652;23.318;2024-01-16T12:45:58;94273.75;;;5.01;63.00
59009;BME280;44794;42.652;23.318;2024-01-16T12:48:24;94270.19;;;4.58;63.95
59009;BME280;44794;42.652;23.318;2024-01-16T12:50:50;94269.09;;;4.48;65.53
59009;BME280;44794;42.652;23.318;2024-01-16T12:53:21;94264.59;;;4.37;68.28
59009;BME280;44794;42.652;23.318;2024-01-16T12:55:48;94254.47;;;4.49;67.55
59009;BME280;44794;42.652;23.318;2024-01-16T12:58:36;94257.00;;;4.94;65.83
59009;BME280;44794;42.652;23.318;2024-01-16T13:01:21;94252.47;;;5.26;65.03
59009;BME280;44794;42.652;23.318;2024-01-16T13:03:46;94267.72;;;5.16;62.83
59009;BME280;44794;42.652;23.318;2024-01-16T13:06:17;94275.06;;;5.08;62.04
59009;BME280;44794;42.652;23.318;2024-01-16T13:08:42;94270.44;;;4.99;62.91
59009;BME280;44794;42.652;23.318;2024-01-16T13:11:08;94273.38;;;4.77;63.94
59009;BME280;44794;42.652;23.318;2024-01-16T13:13:37;94274.50;;;4.73;64.36
59009;BME280;44794;42.652;23.318;2024-01-16T13:16:03;94274.59;;;4.56;66.15